Time;durP1;ratioP1;P1;durP2;ratioP2;P2;SDS_P1;SDS_P2;PMS_P1;PMS_P2;Temp;Humidity;BMP_temperature;BMP_pressure;BME280_temperature;BME280_humidity;BME280_pressure;Samples;Min_cycle;Max_cycle;Signal;HPM_P1;HPM_P2
2022/10/29 00:01:32;;;;;;;26.80;12.10;;;;;;;13.01;100.00;101866.75;10540309;28;20052;-77
2022/10/29 00:06:36;;;;;;;21.20;12.07;;;;;;;12.97;100.00;101862.53;10539493;28;20407;-76
2022/10/29 00:11:38;;;;;;;24.58;13.52;;;;;;;12.91;100.00;101847.88;10536907;28;20047;-77
2022/10/29 00:16:40;;;;;;;25.98;12.40;;;;;;;12.89;100.00;101847.06;10539196;28;20052;-77
2022/10/29 00:21:44;;;;;;;25.45;12.10;;;;;;;12.80;100.00;101850.88;10539159;28;20052;-78
2022/10/29 00:26:45;;;;;;;25.83;12.13;;;;;;;12.67;100.00;101862.72;10538494;28;20079;-76
2022/10/29 00:31:50;;;;;;;24.10;12.57;;;;;;;12.55;100.00;101854.38;10538612;28;20553;-78
2022/10/29 00:36:53;;;;;;;26.83;12.98;;;;;;;12.60;100.00;101851.59;10536384;28;20097;-76
2022/10/29 00:41:55;;;;;;;34.90;13.15;;;;;;;12.56;100.00;101852.63;10538574;28;20044;-76
2022/10/29 00:47:04;;;;;;;23.95;12.98;;;;;;;12.49;100.00;101859.84;10537930;28;20085;-77
2022/10/29 00:52:10;;;;;;;23.65;13.10;;;;;;;12.42;100.00;101866.19;10537786;28;20052;-76
2022/10/29 00:57:19;;;;;;;25.40;13.80;;;;;;;12.35;100.00;101863.75;10537720;28;20425;-75
2022/10/29 01:02:23;;;;;;;26.17;13.48;;;;;;;12.32;100.00;101865.63;10537699;28;20048;-76
2022/10/29 01:07:26;;;;;;;28.38;13.68;;;;;;;12.31;100.00;101859.53;10534848;28;20101;-77
2022/10/29 01:13:18;;;;;;;28.15;13.45;;;;;;;12.25;100.00;101859.72;10537720;28;20044;-76
2022/10/29 01:18:24;;;;;;;;;;;;;;;12.26;100.00;101843.13;10526899;28;20461;-76
2022/10/29 01:24:19;;;;;;;34.75;12.60;;;;;;;12.01;100.00;101830.81;10509941;28;20284;-77
2022/10/29 01:29:46;;;;;;;36.45;13.40;;;;;;;11.94;100.00;101835.41;10459057;28;20044;-76
2022/10/29 01:35:00;;;;;;;33.35;15.00;;;;;;;11.84;100.00;101827.00;10508671;28;20454;-75
2022/10/29 01:40:12;;;;;;;34.13;14.40;;;;;;;11.83;100.00;101814.84;10493922;28;20090;-76
2022/10/29 01:45:23;;;;;;;27.45;14.40;;;;;;;11.70;100.00;101810.88;10496528;28;20052;-76
2022/10/29 01:50:28;;;;;;;40.15;15.70;;;;;;;11.59;100.00;101813.84;10495163;28;20466;-75
2022/10/29 01:55:34;;;;;;;28.98;14.07;;;;;;;11.81;100.00;101797.47;10495006;28;20055;-76
2022/10/29 02:00:48;;;;;;;25.08;13.10;;;;;;;11.63;100.00;101796.31;10494597;28;20041;-76
2022/10/29 02:06:04;;;;;;;29.58;14.30;;;;;;;11.44;100.00;101797.75;10495858;28;20052;-77
2022/10/29 02:11:15;;;;;;;30.65;14.35;;;;;;;11.42;100.00;101793.44;10500116;28;20059;-74
2022/10/29 02:16:17;;;;;;;30.90;14.30;;;;;;;11.39;100.00;101790.94;10502134;28;20051;-78
2022/10/29 02:21:21;;;;;;;28.67;15.38;;;;;;;11.33;100.00;101790.22;10501791;28;20458;-76
2022/10/29 02:26:23;;;;;;;29.73;15.05;;;;;;;11.32;100.00;101780.66;10501145;28;20082;-78
2022/10/29 02:31:25;;;;;;;31.67;15.27;;;;;;;11.28;100.00;101771.22;10501322;28;20058;-74
2022/10/29 02:36:28;;;;;;;32.22;14.82;;;;;;;11.22;100.00;101771.38;10501430;28;20056;-77
2022/10/29 02:41:29;;;;;;;33.72;14.80;;;;;;;11.23;100.00;101754.84;10498702;28;20048;-77
2022/10/29 02:46:34;;;;;;;37.53;15.73;;;;;;;11.24;100.00;101761.75;10500655;28;20500;-75
2022/10/29 02:51:37;;;;;;;32.63;15.60;;;;;;;11.19;100.00;101758.44;10500603;28;20049;-75
2022/10/29 02:56:39;;;;;;;40.95;15.70;;;;;;;11.13;100.00;101758.63;10501014;28;20064;-74
2022/10/29 03:01:41;;;;;;;38.33;16.08;;;;;;;11.14;100.00;101755.97;10500596;28;20052;-77
2022/10/29 03:06:44;;;;;;;35.60;16.27;;;;;;;11.14;100.00;101753.34;10500030;28;20071;-76
2022/10/29 03:11:46;;;;;;;37.78;16.25;;;;;;;11.05;100.00;101741.41;10497912;28;20109;-77
2022/10/29 03:16:48;;;;;;;33.13;15.60;;;;;;;11.00;100.00;101742.44;10499635;28;20094;-75
2022/10/29 03:21:51;;;;;;;33.35;15.02;;;;;;;10.93;100.00;101732.19;10499709;28;20051;-77
2022/10/29 03:26:52;;;;;;;36.53;16.55;;;;;;;10.97;100.00;101738.19;10499043;28;20458;-75
2022/10/29 03:31:54;;;;;;;34.13;15.90;;;;;;;10.85;100.00;101722.88;10499472;28;20098;-75
2022/10/29 03:36:57;;;;;;;40.50;16.27;;;;;;;10.84;100.00;101731.63;10497077;28;20052;-74
2022/10/29 03:41:59;;;;;;;32.13;15.95;;;;;;;10.77;100.00;101710.91;10499232;28;20048;-75
2022/10/29 03:47:00;;;;;;;33.42;16.08;;;;;;;10.86;100.00;101711.53;10498889;28;20052;-76
2022/10/29 03:52:04;;;;;;;38.05;15.90;;;;;;;10.84;100.00;101705.50;10498739;28;20102;-74
2022/10/29 03:57:05;;;;;;;39.97;16.95;;;;;;;10.91;100.00;101707.00;10497994;28;20488;-75
2022/10/29 04:02:07;;;;;;;36.38;16.38;;;;;;;11.02;100.00;101684.03;10498216;28;20098;-75
2022/10/29 04:07:11;;;;;;;40.70;18.17;;;;;;;11.03;100.00;101685.78;10495080;28;20076;-75
2022/10/29 04:12:13;;;;;;;42.15;18.23;;;;;;;11.00;100.00;101675.41;10498000;28;20079;-74
2022/10/29 04:17:14;;;;;;;44.85;18.35;;;;;;;11.15;100.00;101678.47;10497075;28;20496;-75
2022/10/29 04:22:17;;;;;;;45.35;17.25;;;;;;;11.07;100.00;101669.09;10496712;28;20046;-75
2022/10/29 04:27:19;;;;;;;38.50;17.88;;;;;;;11.12;100.00;101671.53;10496747;28;20048;-75
2022/10/29 04:32:20;;;;;;;36.15;17.70;;;;;;;11.14;100.00;101671.50;10495359;28;20049;-76
2022/10/29 04:37:23;;;;;;;43.83;17.80;;;;;;;11.14;100.00;101669.75;10494192;28;20086;-76
2022/10/29 04:42:25;;;;;;;39.13;18.15;;;;;;;11.17;100.00;101666.19;10496625;28;20064;-75
2022/10/29 04:47:28;;;;;;;40.35;16.83;;;;;;;11.16;100.00;101659.25;10495909;28;20416;-74
2022/10/29 04:52:31;;;;;;;49.58;17.88;;;;;;;11.12;100.00;101663.72;10495782;28;20055;-77
2022/10/29 04:57:32;;;;;;;41.70;17.85;;;;;;;11.20;100.00;101655.66;10496209;28;20044;-75
2022/10/29 05:02:35;;;;;;;49.78;18.45;;;;;;;11.15;100.00;101657.56;10496083;28;20052;-75
2022/10/29 05:07:38;;;;;;;42.20;18.10;;;;;;;11.19;100.00;101659.16;10495130;28;20041;-75
2022/10/29 05:12:40;;;;;;;52.40;18.35;;;;;;;11.23;100.00;101650.31;10519413;28;20048;-75
2022/10/29 05:17:42;;;;;;;;;;;;;;;11.36;100.00;101655.16;10537220;28;20089;-75
2022/10/29 05:22:45;;;;;;;51.22;20.08;;;;;;;11.27;100.00;101645.84;10536987;28;19973;-76
2022/10/29 05:27:46;;;;;;;61.17;19.33;;;;;;;11.47;100.00;101647.81;10536455;28;20495;-75
2022/10/29 05:32:48;;;;;;;58.05;19.50;;;;;;;11.51;100.00;101641.56;10536978;28;20101;-75
2022/10/29 05:37:56;;;;;;;60.10;20.80;;;;;;;11.62;100.00;101633.34;10534185;28;20052;-75
2022/10/29 05:42:59;;;;;;;56.05;22.40;;;;;;;11.66;100.00;101632.34;10543821;28;20058;-76
2022/10/29 05:48:03;;;;;;;68.40;22.73;;;;;;;11.79;100.00;101624.94;10545330;28;20078;-77
2022/10/29 05:53:12;;;;;;;53.70;20.65;;;;;;;11.94;100.00;101609.63;10544383;28;20105;-74
2022/10/29 05:58:14;;;;;;;60.90;21.60;;;;;;;11.96;100.00;101623.47;10544775;28;20110;-74
2022/10/29 06:03:19;;;;;;;61.35;21.75;;;;;;;12.03;100.00;101617.13;10544346;28;20113;-75
2022/10/29 06:08:22;;;;;;;67.28;23.92;;;;;;;11.98;100.00;101605.97;10541641;28;20052;-75
2022/10/29 06:13:23;;;;;;;70.10;24.02;;;;;;;12.12;100.00;101612.50;10542896;28;20503;-75
2022/10/29 06:18:25;;;;;;;69.55;25.20;;;;;;;12.23;100.00;101642.59;10543513;28;20100;-76
2022/10/29 06:23:29;;;;;;;72.22;23.33;;;;;;;12.28;100.00;101634.56;10543502;28;20086;-76
2022/10/29 06:28:32;;;;;;;61.50;23.42;;;;;;;12.31;100.00;101641.44;10543183;28;20076;-76
2022/10/29 06:33:33;;;;;;;64.40;23.42;;;;;;;12.30;100.00;101630.13;10543148;28;20415;-75
2022/10/29 06:38:36;;;;;;;70.07;22.90;;;;;;;12.30;100.00;101639.75;10541074;28;20093;-75
2022/10/29 06:43:38;;;;;;;70.32;25.48;;;;;;;12.19;100.00;101641.00;10543306;28;20048;-76
2022/10/29 06:48:40;;;;;;;65.78;24.40;;;;;;;12.21;100.00;101638.31;10542879;28;20067;-78
2022/10/29 06:53:43;;;;;;;64.90;23.80;;;;;;;12.26;100.00;101638.16;10541906;28;20055;-76
2022/10/29 06:58:44;;;;;;;68.82;24.92;;;;;;;12.31;100.00;101644.06;10542328;28;20102;-76
2022/10/29 07:03:46;;;;;;;60.85;23.77;;;;;;;12.37;100.00;101654.31;10542039;28;20051;-78
2022/10/29 07:08:49;;;;;;;68.47;23.35;;;;;;;12.45;100.00;101646.16;10539668;28;20044;-76
2022/10/29 07:13:51;;;;;;;68.47;23.77;;;;;;;12.44;100.00;101639.22;10541447;28;20082;-77
2022/10/29 07:18:53;;;;;;;65.63;23.55;;;;;;;12.55;100.00;101634.44;10541249;28;20105;-77
2022/10/29 07:23:56;;;;;;;59.10;23.25;;;;;;;12.64;100.00;101624.50;10541226;28;20143;-77
2022/10/29 07:28:58;;;;;;;66.30;23.52;;;;;;;12.70;100.00;101603.34;10542833;28;20101;-77
2022/10/29 07:34:00;;;;;;;59.50;24.25;;;;;;;12.84;100.00;101606.28;10541491;28;20105;-78
2022/10/29 07:39:03;;;;;;;62.25;24.52;;;;;;;13.02;100.00;101609.06;10538999;28;20062;-76
2022/10/29 07:44:05;;;;;;;61.35;23.02;;;;;;;13.16;100.00;101607.63;10540453;28;20050;-79
2022/10/29 07:49:06;;;;;;;61.75;23.73;;;;;;;13.37;100.00;101598.88;10541073;28;20105;-78
2022/10/29 07:54:09;;;;;;;54.63;24.40;;;;;;;13.75;100.00;101605.19;10540499;28;20431;-79
2022/10/29 07:59:13;;;;;;;60.13;23.50;;;;;;;13.85;100.00;101616.13;10540553;28;20052;-78
2022/10/29 08:04:15;;;;;;;53.63;24.27;;;;;;;14.48;100.00;101616.84;10539161;28;20136;-78
2022/10/29 08:09:17;;;;;;;;;;;;;;;15.16;100.00;101608.34;10539943;28;20484;-79
2022/10/29 08:14:19;;;;;;;46.83;21.23;;;;;;;15.73;100.00;101605.56;10540101;28;20011;-78
2022/10/29 08:19:21;;;;;;;;;;;;;;;15.64;100.00;101599.81;10540385;28;20495;-77
2022/10/29 08:24:24;;;;;;;43.60;21.35;;;;;;;15.70;100.00;101596.88;10539806;28;19923;-77
2022/10/29 08:29:26;;;;;;;33.63;17.25;;;;;;;15.64;100.00;101597.19;10539388;28;20078;-77
2022/10/29 08:34:27;;;;;;;24.52;15.05;;;;;;;15.69;100.00;101595.19;10540150;28;20079;-78
2022/10/29 08:39:30;;;;;;;;;;;;;;;15.80;100.00;101601.63;10537380;28;20051;-79
2022/10/29 08:45:23;;;;;;;22.20;13.43;;;;;;;16.94;100.00;101600.78;10539810;28;19931;-77
2022/10/29 08:50:33;;;;;;;20.75;12.27;;;;;;;17.19;100.00;101594.97;10539789;28;20074;-78
2022/10/29 08:55:39;;;;;;;23.35;10.23;;;;;;;17.15;100.00;101604.00;10539063;28;20048;-78
2022/10/29 09:00:48;;;;;;;18.10;10.50;;;;;;;17.04;100.00;101595.84;10538691;28;20109;-78
2022/10/29 09:06:10;;;;;;;20.92;9.15;;;;;;;16.61;100.00;101586.81;10540939;28;20048;-78
2022/10/29 09:11:37;;;;;;;15.38;8.80;;;;;;;17.24;100.00;101584.13;10539577;28;20427;-78
2022/10/29 09:16:50;;;;;;;15.82;8.90;;;;;;;17.63;100.00;101592.41;10539188;28;20074;-80
2022/10/29 09:22:05;;;;;;;16.08;8.43;;;;;;;18.14;100.00;101593.75;10538360;28;20511;-78
2022/10/29 09:27:20;;;;;;;16.45;7.70;;;;;;;18.58;100.00;101596.28;10538722;28;20052;-77
2022/10/29 09:32:31;;;;;;;15.95;7.68;;;;;;;17.62;100.00;101577.53;10539362;28;20058;-77
2022/10/29 09:37:46;;;;;;;14.85;7.55;;;;;;;18.10;100.00;101584.31;10536705;28;20057;-76
2022/10/29 09:42:50;;;;;;;18.20;7.63;;;;;;;17.65;100.00;101577.31;10539675;28;20048;-81
2022/10/29 09:48:07;;;;;;;13.93;6.85;;;;;;;17.98;100.00;101570.91;10539014;28;20104;-77
2022/10/29 09:53:09;;;;;;;17.00;7.35;;;;;;;18.59;100.00;101560.97;10538644;28;20043;-76
2022/10/29 09:58:20;;;;;;;13.07;6.57;;;;;;;18.26;100.00;101555.97;10538769;28;20044;-79
2022/10/29 10:03:33;;;;;;;14.30;6.75;;;;;;;19.61;100.00;101549.81;10536766;28;20062;-78
2022/10/29 10:08:59;;;;;;;15.48;6.00;;;;;;;20.41;92.19;101550.38;10534708;28;20044;-79
2022/10/29 10:14:13;;;;;;;12.85;5.95;;;;;;;20.57;86.31;101542.97;10536483;28;20496;-80
2022/10/29 10:19:24;;;;;;;18.98;6.05;;;;;;;20.88;99.67;101539.00;10536850;28;20048;-80
2022/10/29 10:24:32;;;;;;;11.35;5.68;;;;;;;22.68;90.60;101540.03;10536767;28;20507;-81
2022/10/29 10:29:35;;;;;;;15.27;5.82;;;;;;;23.00;85.38;101547.09;10542095;28;20040;-79
2022/10/29 10:34:39;;;;;;;10.45;5.28;;;;;;;22.35;85.81;101542.66;10543474;28;20051;-80
2022/10/29 10:39:44;;;;;;;12.60;4.47;;;;;;;20.37;84.42;101539.19;10542856;28;20052;-80
2022/10/29 10:44:51;;;;;;;17.55;5.57;;;;;;;22.68;86.67;101525.91;10543531;28;20044;-79
2022/10/29 10:49:54;;;;;;;13.95;5.18;;;;;;;22.33;75.68;101520.69;10544154;28;20120;-78
2022/10/29 10:55:01;;;;;;;12.10;4.57;;;;;;;23.99;68.13;101509.41;10543188;28;20105;-78
2022/10/29 11:00:13;;;;;;;10.05;4.25;;;;;;;23.69;72.39;101519.16;10542338;28;20466;-79
2022/10/29 11:05:19;;;;;;;15.77;4.82;;;;;;;23.12;74.80;101513.28;10542190;28;20507;-77
2022/10/29 11:10:34;;;;;;;10.05;4.35;;;;;;;23.44;69.00;101518.66;10539892;28;20093;-80
2022/10/29 11:15:47;;;;;;;17.73;4.10;;;;;;;23.12;74.88;101513.28;10541858;28;20052;-79
2022/10/29 11:21:11;;;;;;;13.00;4.53;;;;;;;24.01;67.49;101518.94;10541552;28;20048;-75
2022/10/29 11:26:21;;;;;;;10.32;4.47;;;;;;;23.32;68.04;101513.38;10541060;28;20143;-78
2022/10/29 11:31:37;;;;;;;15.63;4.97;;;;;;;22.90;68.47;101504.47;10541387;28;20283;-81
2022/10/29 11:36:46;;;;;;;15.68;4.78;;;;;;;23.05;70.81;101496.16;10541139;28;20048;-78
2022/10/29 11:41:57;;;;;;;12.15;4.95;;;;;;;22.84;68.87;101499.69;10538690;28;20071;-77
2022/10/29 11:47:26;;;;;;;14.93;4.57;;;;;;;24.30;67.28;101486.16;10540793;28;20044;-81
2022/10/29 11:52:40;;;;;;;12.30;4.38;;;;;;;24.59;64.93;101479.13;10540287;28;20048;-77
2022/10/29 11:57:52;;;;;;;10.85;4.50;;;;;;;24.50;62.11;101475.47;10540115;28;20059;-78
2022/10/29 12:03:46;;;;;;;12.60;4.28;;;;;;;24.15;61.87;101477.75;10539818;28;20052;-78
2022/10/29 12:09:09;;;;;;;12.95;4.55;;;;;;;25.00;65.90;101467.41;10537857;28;20048;-82
2022/10/29 12:14:27;;;;;;;16.77;4.90;;;;;;;24.62;61.42;101472.66;10539444;28;20049;-78
2022/10/29 12:19:45;;;;;;;12.13;4.68;;;;;;;25.58;58.67;101473.50;10540040;28;20093;-82
2022/10/29 12:25:14;;;;;;;19.80;5.00;;;;;;;24.72;60.07;101460.16;10539203;28;20105;-77
2022/10/29 12:30:18;;;;;;;14.25;4.63;;;;;;;25.38;64.82;101446.03;10540902;28;20052;-79
2022/10/29 12:35:31;;;;;;;21.42;5.10;;;;;;;24.80;60.71;101438.06;10540304;28;20063;-81
2022/10/29 12:40:43;;;;;;;12.18;5.00;;;;;;;24.52;62.03;101430.00;10538114;28;20495;-79
2022/10/29 12:45:55;;;;;;;17.20;4.75;;;;;;;24.35;64.72;101420.88;10540066;28;20050;-80
2022/10/29 12:51:10;;;;;;;14.27;4.40;;;;;;;23.94;65.12;101418.38;10538701;28;20044;-82
2022/10/29 12:56:14;;;;;;;12.32;4.57;;;;;;;24.08;69.21;101417.94;10539265;28;20044;-80
2022/10/29 13:01:47;;;;;;;17.58;4.75;;;;;;;24.55;63.13;101419.91;10538113;28;20052;-79
2022/10/29 13:07:05;;;;;;;24.92;5.72;;;;;;;23.92;65.58;101408.69;10529602;28;20048;-81
2022/10/29 13:12:12;;;;;;;17.25;4.85;;;;;;;23.32;72.93;101406.88;10539737;28;20048;-79
2022/10/29 13:17:35;;;;;;;12.55;4.43;;;;;;;23.52;68.79;101391.84;10539902;28;20519;-78
2022/10/29 13:22:57;;;;;;;13.82;4.38;;;;;;;24.07;70.25;101389.63;10539036;28;20052;-78
2022/10/29 13:27:59;;;;;;;18.23;5.18;;;;;;;23.77;70.46;101386.09;10523528;28;20497;-81
2022/10/29 13:33:01;;;;;;;11.77;4.22;;;;;;;23.02;73.12;101384.63;10497983;28;20076;-79
2022/10/29 13:38:18;;;;;;;14.90;4.50;;;;;;;22.88;74.66;101384.03;10495707;28;20048;-78
2022/10/29 13:43:21;;;;;;;13.35;4.35;;;;;;;22.46;77.17;101379.59;10496339;28;20059;-79
2022/10/29 13:48:30;;;;;;;17.67;5.15;;;;;;;22.04;79.29;101383.09;10496345;28;20052;-78
2022/10/29 13:53:43;;;;;;;21.98;5.07;;;;;;;21.95;80.87;101383.81;10496066;28;20079;-78
2022/10/29 13:58:50;;;;;;;16.33;4.65;;;;;;;21.85;80.08;101376.63;10495590;28;20048;-78
2022/10/29 14:04:00;;;;;;;17.60;4.75;;;;;;;21.79;81.76;101371.81;10502112;28;20443;-77
2022/10/29 14:09:20;;;;;;;11.32;4.38;;;;;;;21.55;82.76;101366.69;10503268;28;20056;-78
2022/10/29 14:14:30;;;;;;;14.82;5.03;;;;;;;21.60;81.69;101357.38;10504391;28;20060;-79
2022/10/29 14:19:32;;;;;;;16.40;4.80;;;;;;;21.53;81.91;101361.50;10503644;28;20053;-78
2022/10/29 14:24:38;;;;;;;17.10;4.70;;;;;;;21.34;83.96;101368.28;10503627;28;20049;-81
2022/10/29 14:29:40;;;;;;;15.90;4.75;;;;;;;21.33;85.29;101371.91;10503439;28;20053;-79
2022/10/29 14:34:44;;;;;;;15.02;4.90;;;;;;;21.23;87.25;101370.94;10502976;28;20074;-80
2022/10/29 14:39:51;;;;;;;18.92;4.93;;;;;;;21.26;83.97;101375.16;10501019;28;20048;-80
2022/10/29 14:44:58;;;;;;;14.75;5.00;;;;;;;21.43;85.27;101379.13;10501987;28;20119;-78
2022/10/29 14:50:02;;;;;;;19.02;5.22;;;;;;;21.04;87.48;101372.41;10502554;28;20044;-79
2022/10/29 14:55:16;;;;;;;14.48;5.43;;;;;;;20.90;86.90;101370.84;10502076;28;20040;-78
2022/10/29 15:00:24;;;;;;;16.15;5.47;;;;;;;20.75;89.60;101375.50;10501855;28;20098;-79
2022/10/29 15:05:30;;;;;;;12.40;4.90;;;;;;;20.57;92.17;101365.34;10501247;28;20048;-77
2022/10/29 15:10:46;;;;;;;18.13;5.65;;;;;;;20.38;92.88;101357.13;10499407;28;20048;-80
2022/10/29 15:15:55;;;;;;;15.90;4.88;;;;;;;20.44;88.45;101359.31;10500439;28;20048;-79
2022/10/29 15:20:57;;;;;;;15.38;5.07;;;;;;;20.35;89.34;101352.91;10502575;28;20064;-78
2022/10/29 15:26:04;;;;;;;14.50;5.18;;;;;;;20.14;93.96;101348.28;10502484;28;20052;-79
2022/10/29 15:31:06;;;;;;;15.07;5.55;;;;;;;19.68;94.03;101334.81;10502827;28;20055;-78
2022/10/29 15:36:10;;;;;;;18.85;5.10;;;;;;;19.90;92.03;101340.34;10501897;28;20397;-78
2022/10/29 15:41:36;;;;;;;14.98;5.28;;;;;;;19.55;94.13;101324.31;10500351;28;20109;-79
2022/10/29 15:46:49;;;;;;;14.88;5.63;;;;;;;19.26;93.94;101311.38;10500544;28;20048;-79
2022/10/29 15:51:54;;;;;;;19.23;6.10;;;;;;;19.40;94.74;101301.63;10499631;28;20048;-76
2022/10/29 15:56:58;;;;;;;21.67;6.38;;;;;;;18.88;100.00;101296.41;10498722;28;20436;-77
2022/10/29 16:02:02;;;;;;;20.25;6.75;;;;;;;18.85;100.00;101296.66;10499677;28;20067;-79
2022/10/29 16:07:04;;;;;;;18.45;6.43;;;;;;;19.06;95.83;101294.31;10498611;28;20474;-77
2022/10/29 16:12:10;;;;;;;20.10;6.38;;;;;;;18.85;100.00;101296.66;10497694;28;20489;-78
2022/10/29 16:17:15;;;;;;;21.40;6.35;;;;;;;18.73;100.00;101288.63;10498606;28;20052;-78
2022/10/29 16:22:27;;;;;;;13.25;6.00;;;;;;;18.92;99.60;101292.59;10498182;28;20048;-77
2022/10/29 16:27:30;;;;;;;16.65;6.50;;;;;;;18.73;100.00;101288.63;10497197;28;20135;-78
2022/10/29 16:32:32;;;;;;;17.20;6.55;;;;;;;18.55;100.00;101284.63;10497534;28;20049;-78
2022/10/29 16:37:34;;;;;;;19.45;7.40;;;;;;;18.59;100.00;101288.75;10496117;28;20060;-78
2022/10/29 16:42:38;;;;;;;18.42;6.95;;;;;;;18.44;100.00;101288.84;10497695;28;20093;-79
2022/10/29 16:47:40;;;;;;;17.95;6.55;;;;;;;18.23;100.00;101281.47;10496121;28;20052;-78
2022/10/29 16:52:45;;;;;;;15.80;6.60;;;;;;;18.40;100.00;101276.81;10502006;28;20128;-78
2022/10/29 16:57:48;;;;;;;19.92;7.15;;;;;;;18.21;100.00;101282.53;10531145;28;20060;-78
2022/10/29 17:02:55;;;;;;;19.98;7.20;;;;;;;18.15;100.00;101267.94;10538996;28;20052;-80
2022/10/29 17:07:57;;;;;;;19.67;6.53;;;;;;;17.98;100.00;101256.69;10536758;28;20545;-78
2022/10/29 17:13:07;;;;;;;14.15;6.05;;;;;;;17.91;100.00;101258.06;10539122;28;20078;-79
2022/10/29 17:18:09;;;;;;;17.48;6.88;;;;;;;17.77;100.00;101254.53;10538158;28;20502;-79
2022/10/29 17:23:12;;;;;;;20.10;7.00;;;;;;;17.60;100.00;101241.63;10537115;28;20052;-80
2022/10/29 17:28:15;;;;;;;14.45;7.10;;;;;;;17.52;100.00;101254.47;10537708;28;20102;-80
2022/10/29 17:33:20;;;;;;;19.10;7.38;;;;;;;17.60;100.00;101252.19;10537672;28;20044;-79
2022/10/29 17:38:22;;;;;;;11.63;6.63;;;;;;;18.19;100.00;101273.84;10536101;28;20163;-80
2022/10/29 17:43:27;;;;;;;16.33;7.03;;;;;;;18.49;100.00;101292.03;10537841;28;20106;-80
2022/10/29 17:48:30;;;;;;;17.33;6.40;;;;;;;18.71;98.67;101301.09;10539652;28;20063;-79
2022/10/29 17:53:32;;;;;;;13.20;6.60;;;;;;;18.76;97.27;101309.59;10530176;28;20071;-81
2022/10/29 17:58:39;;;;;;;15.73;6.03;;;;;;;18.93;96.07;101320.75;10538618;28;20051;-81
2022/10/29 18:03:41;;;;;;;11.95;6.05;;;;;;;18.87;96.12;101334.41;10537764;28;20048;-81
2022/10/29 18:08:43;;;;;;;15.57;6.97;;;;;;;18.94;96.48;101337.44;10534969;28;20059;-80
2022/10/29 18:13:48;;;;;;;12.25;6.10;;;;;;;18.78;96.60;101334.09;10539089;28;20044;-81
2022/10/29 18:18:53;;;;;;;11.85;6.03;;;;;;;18.57;98.46;101325.84;10541216;28;20392;-80
2022/10/29 18:23:54;;;;;;;13.52;6.32;;;;;;;18.47;98.23;101328.28;10541417;28;20135;-77
2022/10/29 18:29:00;;;;;;;17.30;5.95;;;;;;;18.36;98.93;101334.31;10540727;28;20060;-79
2022/10/29 18:34:06;;;;;;;15.95;6.03;;;;;;;18.39;96.95;101325.31;10541980;28;20063;-80
2022/10/29 18:39:09;;;;;;;16.92;6.68;;;;;;;18.14;98.35;101329.63;10538956;28;20415;-79
2022/10/29 18:44:12;;;;;;;15.15;6.70;;;;;;;18.06;97.27;101332.75;10525729;28;20056;-83
2022/10/29 18:49:14;;;;;;;16.10;5.93;;;;;;;18.09;95.86;101331.72;10498976;28;20075;-81
2022/10/29 18:54:16;;;;;;;14.13;5.35;;;;;;;17.96;95.64;101327.22;10527409;28;20052;-79
2022/10/29 18:59:20;;;;;;;21.60;5.57;;;;;;;17.96;94.54;101327.22;10547250;28;20048;-79
2022/10/29 19:04:22;;;;;;;14.15;6.22;;;;;;;17.96;94.18;101319.31;10546486;28;20069;-81
2022/10/29 19:09:25;;;;;;;14.38;5.70;;;;;;;17.81;94.45;101325.59;10542140;28;20109;-79
2022/10/29 19:14:28;;;;;;;11.38;5.65;;;;;;;17.71;94.00;101331.50;10544832;28;20105;-81
2022/10/29 19:19:30;;;;;;;15.27;6.22;;;;;;;17.69;94.32;101312.25;10543467;28;20044;-81
2022/10/29 19:24:36;;;;;;;14.52;5.88;;;;;;;17.62;94.46;101325.00;10543303;28;20060;-79
2022/10/29 19:29:39;;;;;;;11.07;5.43;;;;;;;17.60;93.06;101315.50;10542747;28;20143;-80
2022/10/29 19:34:40;;;;;;;20.45;5.88;;;;;;;17.57;93.39;101329.75;10543985;28;20090;-82
2022/10/29 19:39:45;;;;;;;15.10;5.97;;;;;;;17.50;92.68;101342.50;10539628;28;20048;-77
2022/10/29 19:44:48;;;;;;;16.60;6.00;;;;;;;17.53;91.97;101340.59;10521244;28;20500;-82
2022/10/29 19:49:50;;;;;;;16.73;5.93;;;;;;;17.49;91.28;101342.59;10498874;28;20055;-80
2022/10/29 19:54:51;;;;;;;16.25;5.90;;;;;;;17.40;91.58;101346.66;10502948;28;20496;-78
2022/10/29 19:59:54;;;;;;;19.25;6.63;;;;;;;17.22;92.53;101341.63;10502069;28;20462;-79
2022/10/29 20:04:56;;;;;;;12.05;6.32;;;;;;;17.20;92.33;101340.00;10501479;28;20052;-75
2022/10/29 20:09:59;;;;;;;;;;;;;;;17.16;91.74;101341.13;10498866;28;20052;-79
2022/10/29 20:15:06;;;;;;;21.17;6.47;;;;;;;17.12;91.91;101340.50;10531317;28;19920;-82
2022/10/29 20:20:10;;;;;;;13.27;6.72;;;;;;;17.02;92.49;101348.09;10511491;28;20094;-80
2022/10/29 20:25:12;;;;;;;13.65;6.47;;;;;;;16.94;93.06;101345.91;10499310;28;20087;-82
2022/10/29 20:30:18;;;;;;;13.50;6.60;;;;;;;16.88;93.21;101356.84;10518892;28;20485;-80
2022/10/29 20:35:21;;;;;;;18.33;6.25;;;;;;;16.93;92.36;101354.78;10499299;28;20049;-80
2022/10/29 20:40:22;;;;;;;13.60;6.32;;;;;;;16.73;93.66;101354.19;10497873;28;20067;-79
2022/10/29 20:45:25;;;;;;;14.45;6.60;;;;;;;16.62;93.78;101356.63;10501353;28;20044;-81
2022/10/29 20:50:27;;;;;;;17.67;5.97;;;;;;;16.57;93.95;101366.59;10499900;28;20048;-80
2022/10/29 20:55:31;;;;;;;;;;;;;;;16.45;94.95;101369.03;10499241;28;20117;-81
2022/10/29 21:00:35;;;;;;;15.57;6.13;;;;;;;16.40;94.68;101368.47;10499478;28;19921;-79
2022/10/29 21:05:36;;;;;;;12.77;6.90;;;;;;;16.38;94.86;101370.31;10499384;28;20117;-84
2022/10/29 21:10:38;;;;;;;;;;;;;;;16.40;94.84;101368.47;10497031;28;20048;-79
2022/10/29 21:15:46;;;;;;;16.25;6.65;;;;;;;16.43;94.50;101373.53;10499204;28;19921;-81
2022/10/29 21:20:48;;;;;;;13.02;6.32;;;;;;;16.37;94.64;101379.19;10498722;28;20059;-80
2022/10/29 21:25:52;;;;;;;11.90;6.00;;;;;;;16.29;95.42;101386.69;10500417;28;20060;-79
2022/10/29 21:30:55;;;;;;;13.93;6.55;;;;;;;16.16;95.98;101387.38;10500633;28;20049;-81
2022/10/29 21:35:58;;;;;;;12.48;6.38;;;;;;;16.12;95.76;101395.53;10500510;28;20102;-81
2022/10/29 21:41:01;;;;;;;16.40;6.13;;;;;;;16.22;94.89;101386.19;10496798;28;20051;-80
2022/10/29 21:46:07;;;;;;;15.90;6.05;;;;;;;16.09;95.74;101391.31;10500284;28;20110;-81
2022/10/29 21:51:12;;;;;;;14.85;6.10;;;;;;;15.94;96.70;101393.84;10499636;28;20132;-80
2022/10/29 21:56:15;;;;;;;18.42;6.93;;;;;;;15.62;99.83;101393.84;10499638;28;20086;-82
2022/10/29 22:01:18;;;;;;;15.85;6.82;;;;;;;15.51;100.00;101391.81;10499855;28;20145;-79
2022/10/29 22:06:24;;;;;;;16.60;7.13;;;;;;;15.29;100.00;101392.13;10498552;28;20045;-80
2022/10/29 22:11:28;;;;;;;15.82;7.28;;;;;;;14.88;100.00;101394.22;10496693;28;20469;-79
2022/10/29 22:16:31;;;;;;;13.57;6.95;;;;;;;14.65;100.00;101398.03;10498051;28;20075;-80
2022/10/29 22:21:32;;;;;;;14.23;7.43;;;;;;;14.35;100.00;101396.88;10497274;28;20044;-80
2022/10/29 22:26:34;;;;;;;13.90;7.05;;;;;;;14.19;100.00;101395.94;10504923;28;20082;-80
2022/10/29 22:31:37;;;;;;;13.75;7.10;;;;;;;14.01;100.00;101399.38;10504549;28;20079;-79
2022/10/29 22:36:39;;;;;;;13.10;7.45;;;;;;;13.95;100.00;101399.66;10504838;28;20048;-79
2022/10/29 22:41:41;;;;;;;18.70;7.45;;;;;;;13.93;100.00;101403.28;10504384;28;20057;-80
2022/10/29 22:46:44;;;;;;;19.73;7.85;;;;;;;13.74;100.00;101407.63;10503887;28;20051;-80
2022/10/29 22:51:46;;;;;;;13.38;7.68;;;;;;;13.58;100.00;101406.66;10504041;28;20098;-80
2022/10/29 22:56:48;;;;;;;15.90;8.07;;;;;;;13.38;100.00;101401.34;10503598;28;20055;-79
2022/10/29 23:01:51;;;;;;;18.15;8.05;;;;;;;13.26;100.00;101415.00;10503156;28;20045;-82